sensor_id;sensor_type;location;lat;lon;timestamp;P1;durP1;ratioP1;P2;durP2;ratioP2
4278;SDS011;2153;47.744;10.580;2023-04-24T00:00:05;10.37;;;0.70;;
4278;SDS011;2153;47.744;10.580;2023-04-24T00:02:35;9.90;;;0.60;;
4278;SDS011;2153;47.744;10.580;2023-04-24T00:05:03;10.30;;;0.60;;
4278;SDS011;2153;47.744;10.580;2023-04-24T00:07:30;9.97;;;0.70;;
4278;SDS011;2153;47.744;10.580;2023-04-24T00:09:57;10.20;;;0.73;;
4278;SDS011;2153;47.744;10.580;2023-04-24T00:12:24;9.83;;;0.70;;
4278;SDS011;2153;47.744;10.580;2023-04-24T00:14:51;10.27;;;0.90;;
4278;SDS011;2153;47.744;10.580;2023-04-24T00:17:18;10.30;;;0.80;;
4278;SDS011;2153;47.744;10.580;2023-04-24T00:19:47;10.60;;;0.80;;
4278;SDS011;2153;47.744;10.580;2023-04-24T00:22:16;10.20;;;0.90;;
4278;SDS011;2153;47.744;10.580;2023-04-24T00:24:42;10.07;;;0.80;;
4278;SDS011;2153;47.744;10.580;2023-04-24T00:27:09;9.77;;;0.70;;
4278;SDS011;2153;47.744;10.580;2023-04-24T00:29:36;10.70;;;1.13;;
4278;SDS011;2153;47.744;10.580;2023-04-24T00:32:03;10.60;;;0.70;;
4278;SDS011;2153;47.744;10.580;2023-04-24T00:34:30;10.13;;;0.80;;
4278;SDS011;2153;47.744;10.580;2023-04-24T00:36:58;12.47;;;1.03;;
4278;SDS011;2153;47.744;10.580;2023-04-24T00:39:25;9.97;;;0.90;;
4278;SDS011;2153;47.744;10.580;2023-04-24T00:41:52;9.93;;;0.80;;
4278;SDS011;2153;47.744;10.580;2023-04-24T00:44:20;10.77;;;0.83;;
4278;SDS011;2153;47.744;10.580;2023-04-24T00:46:46;10.00;;;0.70;;
4278;SDS011;2153;47.744;10.580;2023-04-24T00:49:17;10.37;;;0.87;;
4278;SDS011;2153;47.744;10.580;2023-04-24T00:51:44;9.87;;;0.80;;
4278;SDS011;2153;47.744;10.580;2023-04-24T00:54:13;12.50;;;0.90;;
4278;SDS011;2153;47.744;10.580;2023-04-24T00:56:40;9.83;;;0.60;;
4278;SDS011;2153;47.744;10.580;2023-04-24T00:59:08;9.93;;;0.80;;
4278;SDS011;2153;47.744;10.580;2023-04-24T01:01:35;11.23;;;0.90;;
4278;SDS011;2153;47.744;10.580;2023-04-24T01:04:02;15.90;;;0.90;;
4278;SDS011;2153;47.744;10.580;2023-04-24T01:06:29;9.90;;;0.70;;
4278;SDS011;2153;47.744;10.580;2023-04-24T01:08:57;11.80;;;0.80;;
4278;SDS011;2153;47.744;10.580;2023-04-24T01:11:26;10.60;;;0.80;;
4278;SDS011;2153;47.744;10.580;2023-04-24T01:13:53;10.20;;;0.80;;
4278;SDS011;2153;47.744;10.580;2023-04-24T01:16:20;10.70;;;0.80;;
4278;SDS011;2153;47.744;10.580;2023-04-24T01:18:47;14.97;;;0.70;;
4278;SDS011;2153;47.744;10.580;2023-04-24T01:21:14;9.93;;;0.70;;
4278;SDS011;2153;47.744;10.580;2023-04-24T01:23:43;9.97;;;0.70;;
4278;SDS011;2153;47.744;10.580;2023-04-24T01:26:11;10.00;;;0.90;;
4278;SDS011;2153;47.744;10.580;2023-04-24T01:28:38;10.20;;;0.80;;
4278;SDS011;2153;47.744;10.580;2023-04-24T01:31:05;9.87;;;0.70;;
4278;SDS011;2153;47.744;10.580;2023-04-24T01:33:32;10.40;;;0.80;;
4278;SDS011;2153;47.744;10.580;2023-04-24T01:35:59;10.00;;;0.70;;
4278;SDS011;2153;47.744;10.580;2023-04-24T01:38:26;9.73;;;0.60;;
4278;SDS011;2153;47.744;10.580;2023-04-24T01:40:55;9.77;;;0.60;;
4278;SDS011;2153;47.744;10.580;2023-04-24T01:43:22;9.83;;;0.63;;
4278;SDS011;2153;47.744;10.580;2023-04-24T01:45:49;9.77;;;0.50;;
4278;SDS011;2153;47.744;10.580;2023-04-24T01:48:16;10.03;;;0.60;;
4278;SDS011;2153;47.744;10.580;2023-04-24T01:50:43;10.03;;;0.70;;
4278;SDS011;2153;47.744;10.580;2023-04-24T01:53:09;9.57;;;0.60;;
4278;SDS011;2153;47.744;10.580;2023-04-24T01:55:36;10.00;;;0.60;;
4278;SDS011;2153;47.744;10.580;2023-04-24T01:58:04;9.77;;;0.60;;
4278;SDS011;2153;47.744;10.580;2023-04-24T02:00:31;9.83;;;0.80;;
4278;SDS011;2153;47.744;10.580;2023-04-24T02:02:58;9.90;;;0.70;;
4278;SDS011;2153;47.744;10.580;2023-04-24T02:05:26;9.87;;;0.73;;
4278;SDS011;2153;47.744;10.580;2023-04-24T02:07:53;9.93;;;0.73;;
4278;SDS011;2153;47.744;10.580;2023-04-24T02:10:20;10.70;;;0.70;;
4278;SDS011;2153;47.744;10.580;2023-04-24T02:12:47;10.20;;;0.90;;
4278;SDS011;2153;47.744;10.580;2023-04-24T02:15:15;9.90;;;0.80;;
4278;SDS011;2153;47.744;10.580;2023-04-24T02:17:42;10.10;;;0.80;;
4278;SDS011;2153;47.744;10.580;2023-04-24T02:20:09;9.67;;;0.70;;
4278;SDS011;2153;47.744;10.580;2023-04-24T02:22:36;10.07;;;0.90;;
4278;SDS011;2153;47.744;10.580;2023-04-24T02:25:03;10.63;;;0.80;;
4278;SDS011;2153;47.744;10.580;2023-04-24T02:27:31;9.77;;;0.70;;
4278;SDS011;2153;47.744;10.580;2023-04-24T02:29:57;10.00;;;0.80;;
4278;SDS011;2153;47.744;10.580;2023-04-24T02:32:25;9.77;;;0.60;;
4278;SDS011;2153;47.744;10.580;2023-04-24T02:34:52;9.97;;;0.80;;
4278;SDS011;2153;47.744;10.580;2023-04-24T02:37:19;10.00;;;0.93;;
4278;SDS011;2153;47.744;10.580;2023-04-24T02:39:45;9.90;;;0.80;;
4278;SDS011;2153;47.744;10.580;2023-04-24T02:42:12;12.30;;;0.90;;
4278;SDS011;2153;47.744;10.580;2023-04-24T02:44:39;9.70;;;0.67;;
4278;SDS011;2153;47.744;10.580;2023-04-24T02:47:06;9.80;;;0.60;;
4278;SDS011;2153;47.744;10.580;2023-04-24T02:49:34;9.77;;;0.77;;
4278;SDS011;2153;47.744;10.580;2023-04-24T02:52:01;10.00;;;0.70;;
4278;SDS011;2153;47.744;10.580;2023-04-24T02:54:28;10.77;;;0.70;;
4278;SDS011;2153;47.744;10.580;2023-04-24T02:56:55;9.70;;;0.60;;
4278;SDS011;2153;47.744;10.580;2023-04-24T02:59:21;9.80;;;0.60;;
4278;SDS011;2153;47.744;10.580;2023-04-24T03:01:48;13.67;;;0.90;;
4278;SDS011;2153;47.744;10.580;2023-04-24T03:04:15;9.90;;;0.70;;
4278;SDS011;2153;47.744;10.580;2023-04-24T03:06:46;9.70;;;0.70;;
4278;SDS011;2153;47.744;10.580;2023-04-24T03:09:13;9.77;;;0.60;;
4278;SDS011;2153;47.744;10.580;2023-04-24T03:11:39;10.10;;;0.87;;
4278;SDS011;2153;47.744;10.580;2023-04-24T03:14:06;10.97;;;0.73;;
4278;SDS011;2153;47.744;10.580;2023-04-24T03:16:33;10.10;;;0.67;;
4278;SDS011;2153;47.744;10.580;2023-04-24T03:19:00;11.37;;;1.47;;
4278;SDS011;2153;47.744;10.580;2023-04-24T03:21:27;10.53;;;1.13;;
4278;SDS011;2153;47.744;10.580;2023-04-24T03:23:55;10.67;;;0.70;;
4278;SDS011;2153;47.744;10.580;2023-04-24T03:26:22;9.77;;;0.70;;
4278;SDS011;2153;47.744;10.580;2023-04-24T03:28:49;10.23;;;0.73;;
4278;SDS011;2153;47.744;10.580;2023-04-24T03:31:15;10.10;;;0.80;;
4278;SDS011;2153;47.744;10.580;2023-04-24T03:33:44;10.07;;;0.80;;
4278;SDS011;2153;47.744;10.580;2023-04-24T03:36:10;12.00;;;0.70;;
4278;SDS011;2153;47.744;10.580;2023-04-24T03:38:37;9.90;;;0.80;;
4278;SDS011;2153;47.744;10.580;2023-04-24T03:41:05;9.73;;;0.73;;
4278;SDS011;2153;47.744;10.580;2023-04-24T03:43:32;10.00;;;0.90;;
4278;SDS011;2153;47.744;10.580;2023-04-24T03:45:59;9.27;;;0.57;;
4278;SDS011;2153;47.744;10.580;2023-04-24T03:48:26;9.90;;;0.80;;
4278;SDS011;2153;47.744;10.580;2023-04-24T03:50:53;10.63;;;0.90;;
4278;SDS011;2153;47.744;10.580;2023-04-24T03:53:19;9.87;;;0.80;;
4278;SDS011;2153;47.744;10.580;2023-04-24T03:55:46;10.00;;;0.70;;
4278;SDS011;2153;47.744;10.580;2023-04-24T03:58:14;10.40;;;0.80;;
4278;SDS011;2153;47.744;10.580;2023-04-24T04:00:42;10.63;;;0.70;;
4278;SDS011;2153;47.744;10.580;2023-04-24T04:03:11;11.40;;;1.60;;
4278;SDS011;2153;47.744;10.580;2023-04-24T04:05:38;12.53;;;0.83;;
4278;SDS011;2153;47.744;10.580;2023-04-24T04:08:05;9.90;;;0.80;;
4278;SDS011;2153;47.744;10.580;2023-04-24T04:10:32;10.03;;;0.70;;
4278;SDS011;2153;47.744;10.580;2023-04-24T04:12:59;10.20;;;0.70;;
4278;SDS011;2153;47.744;10.580;2023-04-24T04:15:27;10.20;;;0.90;;
4278;SDS011;2153;47.744;10.580;2023-04-24T04:17:54;9.57;;;0.60;;
4278;SDS011;2153;47.744;10.580;2023-04-24T04:20:20;10.17;;;0.70;;
4278;SDS011;2153;47.744;10.580;2023-04-24T04:22:47;10.40;;;0.80;;
4278;SDS011;2153;47.744;10.580;2023-04-24T04:25:14;11.93;;;1.70;;
4278;SDS011;2153;47.744;10.580;2023-04-24T04:27:40;16.10;;;4.37;;
4278;SDS011;2153;47.744;10.580;2023-04-24T04:30:07;18.70;;;6.17;;
4278;SDS011;2153;47.744;10.580;2023-04-24T04:32:36;15.40;;;4.30;;
4278;SDS011;2153;47.744;10.580;2023-04-24T04:35:03;20.67;;;5.60;;
4278;SDS011;2153;47.744;10.580;2023-04-24T04:37:31;15.00;;;3.70;;
4278;SDS011;2153;47.744;10.580;2023-04-24T04:39:58;10.93;;;1.33;;
4278;SDS011;2153;47.744;10.580;2023-04-24T04:42:25;16.87;;;5.30;;
4278;SDS011;2153;47.744;10.580;2023-04-24T04:44:52;12.50;;;2.30;;
4278;SDS011;2153;47.744;10.580;2023-04-24T04:47:19;10.47;;;1.40;;
4278;SDS011;2153;47.744;10.580;2023-04-24T04:49:49;11.73;;;1.50;;
4278;SDS011;2153;47.744;10.580;2023-04-24T04:52:16;9.90;;;0.83;;
4278;SDS011;2153;47.744;10.580;2023-04-24T04:54:43;11.80;;;1.70;;
4278;SDS011;2153;47.744;10.580;2023-04-24T04:57:11;10.00;;;0.90;;
4278;SDS011;2153;47.744;10.580;2023-04-24T04:59:38;10.97;;;1.70;;
4278;SDS011;2153;47.744;10.580;2023-04-24T05:02:06;10.17;;;1.10;;
4278;SDS011;2153;47.744;10.580;2023-04-24T05:04:32;12.73;;;1.67;;
4278;SDS011;2153;47.744;10.580;2023-04-24T05:07:00;10.30;;;1.10;;
4278;SDS011;2153;47.744;10.580;2023-04-24T05:09:27;10.03;;;0.70;;
4278;SDS011;2153;47.744;10.580;2023-04-24T05:11:54;9.90;;;0.83;;
4278;SDS011;2153;47.744;10.580;2023-04-24T05:14:21;9.90;;;0.90;;
4278;SDS011;2153;47.744;10.580;2023-04-24T05:16:48;9.93;;;0.97;;
4278;SDS011;2153;47.744;10.580;2023-04-24T05:19:15;10.10;;;1.00;;
4278;SDS011;2153;47.744;10.580;2023-04-24T05:21:41;10.97;;;1.40;;
4278;SDS011;2153;47.744;10.580;2023-04-24T05:24:09;11.30;;;1.63;;
4278;SDS011;2153;47.744;10.580;2023-04-24T05:26:36;11.03;;;1.20;;
4278;SDS011;2153;47.744;10.580;2023-04-24T05:29:03;10.70;;;1.10;;
4278;SDS011;2153;47.744;10.580;2023-04-24T05:31:30;10.83;;;1.40;;
4278;SDS011;2153;47.744;10.580;2023-04-24T05:33:56;10.27;;;1.17;;
4278;SDS011;2153;47.744;10.580;2023-04-24T05:36:23;10.07;;;1.07;;
4278;SDS011;2153;47.744;10.580;2023-04-24T05:38:50;12.07;;;1.67;;
4278;SDS011;2153;47.744;10.580;2023-04-24T05:41:18;12.50;;;2.20;;
4278;SDS011;2153;47.744;10.580;2023-04-24T05:43:46;15.47;;;1.40;;
4278;SDS011;2153;47.744;10.580;2023-04-24T05:46:12;12.03;;;1.80;;
4278;SDS011;2153;47.744;10.580;2023-04-24T05:48:39;13.40;;;2.60;;
4278;SDS011;2153;47.744;10.580;2023-04-24T05:51:06;11.23;;;1.40;;
4278;SDS011;2153;47.744;10.580;2023-04-24T05:53:33;11.57;;;2.07;;
4278;SDS011;2153;47.744;10.580;2023-04-24T05:55:59;12.80;;;2.10;;
4278;SDS011;2153;47.744;10.580;2023-04-24T05:58:27;11.73;;;1.73;;
4278;SDS011;2153;47.744;10.580;2023-04-24T06:00:54;11.27;;;1.87;;
4278;SDS011;2153;47.744;10.580;2023-04-24T06:03:22;10.97;;;1.30;;
4278;SDS011;2153;47.744;10.580;2023-04-24T06:05:49;11.00;;;1.23;;
4278;SDS011;2153;47.744;10.580;2023-04-24T06:08:16;10.17;;;1.00;;
4278;SDS011;2153;47.744;10.580;2023-04-24T06:10:43;11.20;;;1.10;;
4278;SDS011;2153;47.744;10.580;2023-04-24T06:13:10;10.60;;;1.20;;
4278;SDS011;2153;47.744;10.580;2023-04-24T06:15:38;11.47;;;1.60;;
4278;SDS011;2153;47.744;10.580;2023-04-24T06:18:05;15.00;;;1.50;;
4278;SDS011;2153;47.744;10.580;2023-04-24T06:20:32;14.40;;;1.17;;
4278;SDS011;2153;47.744;10.580;2023-04-24T06:22:59;10.20;;;1.00;;
4278;SDS011;2153;47.744;10.580;2023-04-24T06:25:26;10.20;;;0.77;;
4278;SDS011;2153;47.744;10.580;2023-04-24T06:27:53;10.00;;;0.87;;
4278;SDS011;2153;47.744;10.580;2023-04-24T06:30:20;10.70;;;1.00;;
4278;SDS011;2153;47.744;10.580;2023-04-24T06:32:49;10.40;;;1.20;;
4278;SDS011;2153;47.744;10.580;2023-04-24T06:35:16;11.00;;;1.77;;
4278;SDS011;2153;47.744;10.580;2023-04-24T06:37:43;12.13;;;1.50;;
4278;SDS011;2153;47.744;10.580;2023-04-24T06:40:10;10.40;;;1.10;;
4278;SDS011;2153;47.744;10.580;2023-04-24T06:42:37;10.77;;;0.93;;
4278;SDS011;2153;47.744;10.580;2023-04-24T06:45:04;9.90;;;0.80;;
4278;SDS011;2153;47.744;10.580;2023-04-24T06:47:31;10.20;;;1.03;;
4278;SDS011;2153;47.744;10.580;2023-04-24T06:49:59;9.90;;;0.80;;
4278;SDS011;2153;47.744;10.580;2023-04-24T06:52:26;13.83;;;1.07;;
4278;SDS011;2153;47.744;10.580;2023-04-24T06:54:59;10.17;;;0.70;;
4278;SDS011;2153;47.744;10.580;2023-04-24T06:57:26;10.00;;;0.87;;
4278;SDS011;2153;47.744;10.580;2023-04-24T06:59:53;9.77;;;0.73;;
4278;SDS011;2153;47.744;10.580;2023-04-24T07:02:19;9.70;;;0.70;;
4278;SDS011;2153;47.744;10.580;2023-04-24T07:04:46;9.80;;;0.70;;
4278;SDS011;2153;47.744;10.580;2023-04-24T07:07:14;9.77;;;0.80;;
4278;SDS011;2153;47.744;10.580;2023-04-24T07:09:41;9.57;;;0.70;;
4278;SDS011;2153;47.744;10.580;2023-04-24T07:12:09;11.20;;;0.70;;
4278;SDS011;2153;47.744;10.580;2023-04-24T07:14:36;10.27;;;0.90;;
4278;SDS011;2153;47.744;10.580;2023-04-24T07:17:03;12.83;;;0.70;;
4278;SDS011;2153;47.744;10.580;2023-04-24T07:19:31;9.90;;;0.77;;
4278;SDS011;2153;47.744;10.580;2023-04-24T07:21:59;10.07;;;0.70;;
4278;SDS011;2153;47.744;10.580;2023-04-24T07:24:27;9.97;;;0.70;;
4278;SDS011;2153;47.744;10.580;2023-04-24T07:26:54;9.83;;;0.90;;
4278;SDS011;2153;47.744;10.580;2023-04-24T07:29:21;10.10;;;0.90;;
4278;SDS011;2153;47.744;10.580;2023-04-24T07:31:48;9.87;;;0.80;;
4278;SDS011;2153;47.744;10.580;2023-04-24T07:34:15;9.40;;;0.60;;
4278;SDS011;2153;47.744;10.580;2023-04-24T07:36:42;11.00;;;0.90;;
4278;SDS011;2153;47.744;10.580;2023-04-24T07:39:08;10.07;;;0.80;;
4278;SDS011;2153;47.744;10.580;2023-04-24T07:41:37;10.07;;;0.87;;
4278;SDS011;2153;47.744;10.580;2023-04-24T07:44:03;11.43;;;1.20;;
4278;SDS011;2153;47.744;10.580;2023-04-24T07:46:30;10.70;;;1.10;;
4278;SDS011;2153;47.744;10.580;2023-04-24T07:48:57;11.73;;;1.07;;
4278;SDS011;2153;47.744;10.580;2023-04-24T07:51:26;9.93;;;1.00;;
4278;SDS011;2153;47.744;10.580;2023-04-24T07:53:53;9.73;;;0.80;;
4278;SDS011;2153;47.744;10.580;2023-04-24T07:56:20;10.00;;;1.00;;
4278;SDS011;2153;47.744;10.580;2023-04-24T07:58:48;10.20;;;0.90;;
4278;SDS011;2153;47.744;10.580;2023-04-24T08:01:15;11.30;;;1.27;;
4278;SDS011;2153;47.744;10.580;2023-04-24T08:03:42;10.90;;;1.60;;
4278;SDS011;2153;47.744;10.580;2023-04-24T08:06:09;10.70;;;1.10;;
4278;SDS011;2153;47.744;10.580;2023-04-24T08:08:35;10.50;;;1.10;;
4278;SDS011;2153;47.744;10.580;2023-04-24T08:11:02;11.30;;;1.53;;
4278;SDS011;2153;47.744;10.580;2023-04-24T08:13:29;13.00;;;2.03;;
4278;SDS011;2153;47.744;10.580;2023-04-24T08:15:57;11.07;;;1.70;;
4278;SDS011;2153;47.744;10.580;2023-04-24T08:18:24;10.40;;;1.40;;
4278;SDS011;2153;47.744;10.580;2023-04-24T08:20:51;10.93;;;1.50;;
4278;SDS011;2153;47.744;10.580;2023-04-24T08:23:18;10.93;;;1.50;;
4278;SDS011;2153;47.744;10.580;2023-04-24T08:25:44;13.80;;;1.63;;
4278;SDS011;2153;47.744;10.580;2023-04-24T08:28:11;12.20;;;1.80;;
4278;SDS011;2153;47.744;10.580;2023-04-24T08:30:44;11.20;;;1.47;;
4278;SDS011;2153;47.744;10.580;2023-04-24T08:33:13;11.33;;;1.40;;
4278;SDS011;2153;47.744;10.580;2023-04-24T08:35:40;11.50;;;1.90;;
4278;SDS011;2153;47.744;10.580;2023-04-24T08:38:07;10.80;;;1.40;;
4278;SDS011;2153;47.744;10.580;2023-04-24T08:40:34;12.70;;;1.60;;
4278;SDS011;2153;47.744;10.580;2023-04-24T08:43:01;12.07;;;2.40;;
4278;SDS011;2153;47.744;10.580;2023-04-24T08:45:27;11.40;;;1.87;;
4278;SDS011;2153;47.744;10.580;2023-04-24T08:47:55;11.23;;;1.80;;
4278;SDS011;2153;47.744;10.580;2023-04-24T08:50:26;10.73;;;1.50;;
4278;SDS011;2153;47.744;10.580;2023-04-24T08:52:54;11.40;;;1.80;;
4278;SDS011;2153;47.744;10.580;2023-04-24T08:55:22;10.70;;;1.57;;
4278;SDS011;2153;47.744;10.580;2023-04-24T08:57:51;11.73;;;1.90;;
4278;SDS011;2153;47.744;10.580;2023-04-24T09:00:20;10.53;;;1.57;;
4278;SDS011;2153;47.744;10.580;2023-04-24T09:02:48;14.60;;;1.90;;
4278;SDS011;2153;47.744;10.580;2023-04-24T09:05:16;13.50;;;2.00;;
4278;SDS011;2153;47.744;10.580;2023-04-24T09:07:45;12.50;;;1.80;;
4278;SDS011;2153;47.744;10.580;2023-04-24T09:10:18;12.30;;;2.07;;
4278;SDS011;2153;47.744;10.580;2023-04-24T09:12:45;12.50;;;2.30;;
4278;SDS011;2153;47.744;10.580;2023-04-24T09:15:13;14.30;;;2.50;;
4278;SDS011;2153;47.744;10.580;2023-04-24T09:17:40;12.17;;;2.10;;
4278;SDS011;2153;47.744;10.580;2023-04-24T09:20:07;13.57;;;1.97;;
4278;SDS011;2153;47.744;10.580;2023-04-24T09:22:34;13.70;;;2.47;;
4278;SDS011;2153;47.744;10.580;2023-04-24T09:25:06;11.73;;;1.90;;
4278;SDS011;2153;47.744;10.580;2023-04-24T09:27:34;11.77;;;1.70;;
4278;SDS011;2153;47.744;10.580;2023-04-24T09:30:01;12.40;;;1.83;;
4278;SDS011;2153;47.744;10.580;2023-04-24T09:32:28;13.97;;;1.83;;
4278;SDS011;2153;47.744;10.580;2023-04-24T09:35:06;12.30;;;1.90;;
4278;SDS011;2153;47.744;10.580;2023-04-24T09:37:35;13.30;;;1.60;;
4278;SDS011;2153;47.744;10.580;2023-04-24T09:40:14;11.67;;;1.97;;
4278;SDS011;2153;47.744;10.580;2023-04-24T09:42:45;14.00;;;1.80;;
4278;SDS011;2153;47.744;10.580;2023-04-24T09:45:17;14.90;;;2.10;;
4278;SDS011;2153;47.744;10.580;2023-04-24T09:47:44;11.63;;;1.60;;
4278;SDS011;2153;47.744;10.580;2023-04-24T09:50:12;14.30;;;1.93;;
4278;SDS011;2153;47.744;10.580;2023-04-24T09:52:41;12.80;;;1.87;;
4278;SDS011;2153;47.744;10.580;2023-04-24T09:55:15;14.40;;;2.10;;
4278;SDS011;2153;47.744;10.580;2023-04-24T09:57:46;14.30;;;1.80;;
4278;SDS011;2153;47.744;10.580;2023-04-24T10:00:17;12.37;;;1.73;;
4278;SDS011;2153;47.744;10.580;2023-04-24T10:02:45;11.70;;;1.60;;
4278;SDS011;2153;47.744;10.580;2023-04-24T10:05:16;13.57;;;1.80;;
4278;SDS011;2153;47.744;10.580;2023-04-24T10:07:43;13.77;;;1.43;;
4278;SDS011;2153;47.744;10.580;2023-04-24T10:10:11;11.57;;;1.33;;
4278;SDS011;2153;47.744;10.580;2023-04-24T10:12:39;14.30;;;1.50;;
4278;SDS011;2153;47.744;10.580;2023-04-24T10:15:08;11.80;;;1.63;;
4278;SDS011;2153;47.744;10.580;2023-04-24T10:17:37;11.87;;;2.20;;
4278;SDS011;2153;47.744;10.580;2023-04-24T10:20:05;13.30;;;1.77;;
4278;SDS011;2153;47.744;10.580;2023-04-24T10:22:33;11.60;;;1.40;;
4278;SDS011;2153;47.744;10.580;2023-04-24T10:25:01;12.43;;;1.73;;
4278;SDS011;2153;47.744;10.580;2023-04-24T10:27:31;13.73;;;1.70;;
4278;SDS011;2153;47.744;10.580;2023-04-24T10:30:00;13.63;;;1.43;;
4278;SDS011;2153;47.744;10.580;2023-04-24T10:32:29;12.20;;;2.20;;
4278;SDS011;2153;47.744;10.580;2023-04-24T10:34:56;14.20;;;1.90;;
4278;SDS011;2153;47.744;10.580;2023-04-24T10:37:23;15.20;;;4.20;;
4278;SDS011;2153;47.744;10.580;2023-04-24T10:39:51;12.60;;;1.77;;
4278;SDS011;2153;47.744;10.580;2023-04-24T10:42:19;11.60;;;1.70;;
4278;SDS011;2153;47.744;10.580;2023-04-24T10:44:47;12.00;;;1.80;;
4278;SDS011;2153;47.744;10.580;2023-04-24T10:47:15;12.90;;;2.03;;
4278;SDS011;2153;47.744;10.580;2023-04-24T10:49:42;12.40;;;1.73;;
4278;SDS011;2153;47.744;10.580;2023-04-24T10:52:09;11.83;;;1.73;;
4278;SDS011;2153;47.744;10.580;2023-04-24T10:54:40;11.33;;;1.80;;
4278;SDS011;2153;47.744;10.580;2023-04-24T10:57:27;11.90;;;2.00;;
4278;SDS011;2153;47.744;10.580;2023-04-24T11:00:10;14.60;;;2.07;;
4278;SDS011;2153;47.744;10.580;2023-04-24T11:02:42;15.40;;;3.07;;
4278;SDS011;2153;47.744;10.580;2023-04-24T11:05:14;12.60;;;2.40;;
4278;SDS011;2153;47.744;10.580;2023-04-24T11:10:37;13.90;;;2.67;;
4278;SDS011;2153;47.744;10.580;2023-04-24T11:13:05;11.60;;;1.80;;
4278;SDS011;2153;47.744;10.580;2023-04-24T11:15:32;16.10;;;2.50;;
4278;SDS011;2153;47.744;10.580;2023-04-24T11:18:00;13.40;;;2.50;;
4278;SDS011;2153;47.744;10.580;2023-04-24T11:20:27;11.73;;;1.97;;
4278;SDS011;2153;47.744;10.580;2023-04-24T11:22:54;14.40;;;2.17;;
4278;SDS011;2153;47.744;10.580;2023-04-24T11:25:22;16.50;;;1.90;;
4278;SDS011;2153;47.744;10.580;2023-04-24T11:27:50;12.00;;;2.17;;
4278;SDS011;2153;47.744;10.580;2023-04-24T11:30:28;17.80;;;2.57;;
4278;SDS011;2153;47.744;10.580;2023-04-24T11:32:56;14.03;;;2.60;;
4278;SDS011;2153;47.744;10.580;2023-04-24T11:35:30;12.00;;;2.10;;
4278;SDS011;2153;47.744;10.580;2023-04-24T11:38:02;13.80;;;2.10;;
4278;SDS011;2153;47.744;10.580;2023-04-24T11:40:30;14.23;;;2.00;;
4278;SDS011;2153;47.744;10.580;2023-04-24T11:42:59;12.00;;;1.83;;
4278;SDS011;2153;47.744;10.580;2023-04-24T11:45:27;12.30;;;2.30;;
4278;SDS011;2153;47.744;10.580;2023-04-24T11:47:54;13.43;;;2.50;;
4278;SDS011;2153;47.744;10.580;2023-04-24T11:50:23;12.43;;;2.07;;
4278;SDS011;2153;47.744;10.580;2023-04-24T11:52:52;12.43;;;2.00;;
4278;SDS011;2153;47.744;10.580;2023-04-24T11:55:24;14.80;;;1.80;;
4278;SDS011;2153;47.744;10.580;2023-04-24T11:57:53;13.27;;;2.20;;
4278;SDS011;2153;47.744;10.580;2023-04-24T12:00:22;13.80;;;2.07;;
4278;SDS011;2153;47.744;10.580;2023-04-24T12:02:51;11.43;;;1.70;;
4278;SDS011;2153;47.744;10.580;2023-04-24T12:05:31;22.83;;;9.50;;
4278;SDS011;2153;47.744;10.580;2023-04-24T12:07:58;12.43;;;2.37;;
4278;SDS011;2153;47.744;10.580;2023-04-24T12:10:26;16.53;;;2.90;;
4278;SDS011;2153;47.744;10.580;2023-04-24T12:12:54;12.63;;;2.27;;
4278;SDS011;2153;47.744;10.580;2023-04-24T12:15:22;13.67;;;2.20;;
4278;SDS011;2153;47.744;10.580;2023-04-24T12:17:50;14.50;;;3.77;;
4278;SDS011;2153;47.744;10.580;2023-04-24T12:20:23;15.80;;;2.27;;
4278;SDS011;2153;47.744;10.580;2023-04-24T12:22:52;12.60;;;2.37;;
4278;SDS011;2153;47.744;10.580;2023-04-24T12:25:20;13.90;;;3.00;;
4278;SDS011;2153;47.744;10.580;2023-04-24T12:27:52;13.60;;;2.60;;
4278;SDS011;2153;47.744;10.580;2023-04-24T12:30:19;14.40;;;2.20;;
4278;SDS011;2153;47.744;10.580;2023-04-24T12:32:47;14.40;;;2.47;;
4278;SDS011;2153;47.744;10.580;2023-04-24T12:35:18;12.50;;;1.93;;
4278;SDS011;2153;47.744;10.580;2023-04-24T12:37:46;13.10;;;3.20;;
4278;SDS011;2153;47.744;10.580;2023-04-24T12:40:15;12.37;;;2.17;;
4278;SDS011;2153;47.744;10.580;2023-04-24T12:42:44;12.30;;;1.90;;
4278;SDS011;2153;47.744;10.580;2023-04-24T12:45:12;12.67;;;2.43;;
4278;SDS011;2153;47.744;10.580;2023-04-24T12:47:40;12.07;;;2.23;;
4278;SDS011;2153;47.744;10.580;2023-04-24T12:50:08;12.67;;;2.77;;
4278;SDS011;2153;47.744;10.580;2023-04-24T12:52:36;12.13;;;1.83;;
4278;SDS011;2153;47.744;10.580;2023-04-24T12:55:04;12.93;;;2.30;;
4278;SDS011;2153;47.744;10.580;2023-04-24T12:57:35;11.93;;;1.80;;
4278;SDS011;2153;47.744;10.580;2023-04-24T13:00:02;18.80;;;2.90;;
4278;SDS011;2153;47.744;10.580;2023-04-24T13:02:32;11.10;;;2.03;;
4278;SDS011;2153;47.744;10.580;2023-04-24T13:05:00;13.07;;;1.90;;
4278;SDS011;2153;47.744;10.580;2023-04-24T13:07:27;12.70;;;2.20;;
4278;SDS011;2153;47.744;10.580;2023-04-24T13:09:54;12.03;;;2.00;;
4278;SDS011;2153;47.744;10.580;2023-04-24T13:12:21;19.23;;;1.90;;
4278;SDS011;2153;47.744;10.580;2023-04-24T13:14:51;15.23;;;1.97;;
4278;SDS011;2153;47.744;10.580;2023-04-24T13:17:18;13.83;;;1.90;;
4278;SDS011;2153;47.744;10.580;2023-04-24T13:19:45;12.67;;;2.03;;
4278;SDS011;2153;47.744;10.580;2023-04-24T13:22:12;12.13;;;2.00;;
4278;SDS011;2153;47.744;10.580;2023-04-24T13:24:39;18.00;;;1.80;;
4278;SDS011;2153;47.744;10.580;2023-04-24T13:27:06;15.07;;;1.90;;
4278;SDS011;2153;47.744;10.580;2023-04-24T13:29:34;12.40;;;1.50;;
4278;SDS011;2153;47.744;10.580;2023-04-24T13:32:02;14.07;;;2.10;;
4278;SDS011;2153;47.744;10.580;2023-04-24T13:34:29;12.60;;;2.20;;
4278;SDS011;2153;47.744;10.580;2023-04-24T13:36:56;12.97;;;2.30;;
4278;SDS011;2153;47.744;10.580;2023-04-24T13:39:24;17.80;;;4.33;;
4278;SDS011;2153;47.744;10.580;2023-04-24T13:41:51;14.40;;;2.87;;
4278;SDS011;2153;47.744;10.580;2023-04-24T13:44:19;12.43;;;1.70;;
4278;SDS011;2153;47.744;10.580;2023-04-24T13:46:47;13.60;;;1.73;;
4278;SDS011;2153;47.744;10.580;2023-04-24T13:49:18;11.87;;;1.47;;
4278;SDS011;2153;47.744;10.580;2023-04-24T13:51:45;11.63;;;1.53;;
4278;SDS011;2153;47.744;10.580;2023-04-24T13:54:12;11.90;;;1.80;;
4278;SDS011;2153;47.744;10.580;2023-04-24T13:56:38;12.00;;;1.70;;
4278;SDS011;2153;47.744;10.580;2023-04-24T13:59:05;11.53;;;1.40;;
4278;SDS011;2153;47.744;10.580;2023-04-24T14:01:32;12.83;;;1.73;;
4278;SDS011;2153;47.744;10.580;2023-04-24T14:03:59;12.10;;;1.93;;
4278;SDS011;2153;47.744;10.580;2023-04-24T14:06:27;13.33;;;2.03;;
4278;SDS011;2153;47.744;10.580;2023-04-24T14:08:54;13.57;;;2.40;;
4278;SDS011;2153;47.744;10.580;2023-04-24T14:11:21;13.43;;;1.77;;
4278;SDS011;2153;47.744;10.580;2023-04-24T14:13:47;11.37;;;1.60;;
4278;SDS011;2153;47.744;10.580;2023-04-24T14:16:15;11.27;;;1.63;;
4278;SDS011;2153;47.744;10.580;2023-04-24T14:18:41;12.10;;;1.90;;
4278;SDS011;2153;47.744;10.580;2023-04-24T14:21:08;13.90;;;2.00;;
4278;SDS011;2153;47.744;10.580;2023-04-24T14:23:36;12.73;;;1.93;;
4278;SDS011;2153;47.744;10.580;2023-04-24T14:26:03;13.70;;;2.30;;
4278;SDS011;2153;47.744;10.580;2023-04-24T14:28:30;13.77;;;2.37;;
4278;SDS011;2153;47.744;10.580;2023-04-24T14:30:57;14.30;;;2.50;;
4278;SDS011;2153;47.744;10.580;2023-04-24T14:33:23;12.47;;;2.30;;
4278;SDS011;2153;47.744;10.580;2023-04-24T14:35:50;13.20;;;2.60;;
4278;SDS011;2153;47.744;10.580;2023-04-24T14:38:17;12.37;;;2.10;;
4278;SDS011;2153;47.744;10.580;2023-04-24T14:40:45;12.30;;;1.87;;
4278;SDS011;2153;47.744;10.580;2023-04-24T14:43:12;12.97;;;2.10;;
4278;SDS011;2153;47.744;10.580;2023-04-24T14:45:39;11.57;;;1.63;;
4278;SDS011;2153;47.744;10.580;2023-04-24T14:48:06;14.63;;;1.63;;
4278;SDS011;2153;47.744;10.580;2023-04-24T14:50:34;12.83;;;1.60;;
4278;SDS011;2153;47.744;10.580;2023-04-24T14:53:00;11.17;;;1.50;;
4278;SDS011;2153;47.744;10.580;2023-04-24T14:55:27;11.40;;;1.70;;